sensor_id;sensor_type;location;lat;lon;timestamp;P1;durP1;ratioP1;P2;durP2;ratioP2
58081;SDS011;43876;55.576;38.242;2022-07-06T00:00:06;24.00;;;16.08;;
58081;SDS011;43876;55.576;38.242;2022-07-06T00:02:34;21.90;;;15.15;;
58081;SDS011;43876;55.576;38.242;2022-07-06T00:05:01;25.65;;;17.38;;
58081;SDS011;43876;55.576;38.242;2022-07-06T00:07:28;25.67;;;19.02;;
58081;SDS011;43876;55.576;38.242;2022-07-06T00:09:56;24.17;;;18.25;;
58081;SDS011;43876;55.576;38.242;2022-07-06T00:12:24;22.77;;;17.20;;
58081;SDS011;43876;55.576;38.242;2022-07-06T00:14:51;25.15;;;19.98;;
58081;SDS011;43876;55.576;38.242;2022-07-06T00:17:19;27.75;;;19.77;;
58081;SDS011;43876;55.576;38.242;2022-07-06T00:19:46;29.27;;;19.20;;
58081;SDS011;43876;55.576;38.242;2022-07-06T00:22:13;26.15;;;19.65;;
58081;SDS011;43876;55.576;38.242;2022-07-06T00:24:40;26.00;;;19.40;;
58081;SDS011;43876;55.576;38.242;2022-07-06T00:27:07;24.80;;;18.45;;
58081;SDS011;43876;55.576;38.242;2022-07-06T00:29:34;24.75;;;18.40;;
58081;SDS011;43876;55.576;38.242;2022-07-06T00:32:01;24.40;;;16.83;;
58081;SDS011;43876;55.576;38.242;2022-07-06T00:34:28;22.67;;;17.02;;
58081;SDS011;43876;55.576;38.242;2022-07-06T00:36:56;24.55;;;17.52;;
58081;SDS011;43876;55.576;38.242;2022-07-06T00:39:23;23.88;;;18.38;;
58081;SDS011;43876;55.576;38.242;2022-07-06T00:41:56;26.50;;;19.75;;
58081;SDS011;43876;55.576;38.242;2022-07-06T00:44:23;32.17;;;23.25;;
58081;SDS011;43876;55.576;38.242;2022-07-06T00:46:50;35.20;;;24.35;;
58081;SDS011;43876;55.576;38.242;2022-07-06T00:49:17;39.53;;;25.23;;
58081;SDS011;43876;55.576;38.242;2022-07-06T00:52:04;28.15;;;20.20;;
58081;SDS011;43876;55.576;38.242;2022-07-06T00:54:31;27.40;;;20.05;;
58081;SDS011;43876;55.576;38.242;2022-07-06T00:56:59;25.35;;;19.08;;
58081;SDS011;43876;55.576;38.242;2022-07-06T00:59:27;24.65;;;19.67;;
58081;SDS011;43876;55.576;38.242;2022-07-06T01:01:54;29.58;;;20.50;;
58081;SDS011;43876;55.576;38.242;2022-07-06T01:04:22;28.17;;;20.65;;
58081;SDS011;43876;55.576;38.242;2022-07-06T01:06:49;32.63;;;21.05;;
58081;SDS011;43876;55.576;38.242;2022-07-06T01:09:16;30.95;;;20.70;;
58081;SDS011;43876;55.576;38.242;2022-07-06T01:11:43;26.73;;;18.98;;
58081;SDS011;43876;55.576;38.242;2022-07-06T01:14:12;27.23;;;19.48;;
58081;SDS011;43876;55.576;38.242;2022-07-06T01:16:40;27.05;;;20.13;;
58081;SDS011;43876;55.576;38.242;2022-07-06T01:19:08;27.23;;;19.67;;
58081;SDS011;43876;55.576;38.242;2022-07-06T01:21:37;22.33;;;16.85;;
58081;SDS011;43876;55.576;38.242;2022-07-06T01:24:05;22.92;;;16.80;;
58081;SDS011;43876;55.576;38.242;2022-07-06T01:26:32;22.33;;;15.63;;
58081;SDS011;43876;55.576;38.242;2022-07-06T01:28:59;25.80;;;17.10;;
58081;SDS011;43876;55.576;38.242;2022-07-06T01:31:26;26.58;;;17.40;;
58081;SDS011;43876;55.576;38.242;2022-07-06T01:33:54;28.90;;;19.75;;
58081;SDS011;43876;55.576;38.242;2022-07-06T01:36:23;26.33;;;17.73;;
58081;SDS011;43876;55.576;38.242;2022-07-06T01:38:51;24.05;;;17.35;;
58081;SDS011;43876;55.576;38.242;2022-07-06T01:41:20;26.90;;;17.95;;
58081;SDS011;43876;55.576;38.242;2022-07-06T01:43:48;26.75;;;18.38;;
58081;SDS011;43876;55.576;38.242;2022-07-06T01:46:16;26.48;;;19.35;;
58081;SDS011;43876;55.576;38.242;2022-07-06T01:48:43;29.02;;;20.52;;
58081;SDS011;43876;55.576;38.242;2022-07-06T01:51:10;26.27;;;19.70;;
58081;SDS011;43876;55.576;38.242;2022-07-06T01:53:39;29.38;;;19.30;;
58081;SDS011;43876;55.576;38.242;2022-07-06T01:56:09;24.23;;;19.40;;
58081;SDS011;43876;55.576;38.242;2022-07-06T01:58:37;29.75;;;19.70;;
58081;SDS011;43876;55.576;38.242;2022-07-06T02:01:12;27.13;;;19.83;;
58081;SDS011;43876;55.576;38.242;2022-07-06T02:03:41;29.58;;;19.85;;
58081;SDS011;43876;55.576;38.242;2022-07-06T02:06:09;25.90;;;19.83;;
58081;SDS011;43876;55.576;38.242;2022-07-06T02:08:38;23.55;;;19.38;;
58081;SDS011;43876;55.576;38.242;2022-07-06T02:11:06;24.60;;;19.33;;
58081;SDS011;43876;55.576;38.242;2022-07-06T02:13:37;24.42;;;17.63;;
58081;SDS011;43876;55.576;38.242;2022-07-06T02:16:27;23.20;;;17.58;;
58081;SDS011;43876;55.576;38.242;2022-07-06T02:18:55;26.35;;;17.90;;
58081;SDS011;43876;55.576;38.242;2022-07-06T02:21:22;22.08;;;17.23;;
58081;SDS011;43876;55.576;38.242;2022-07-06T02:23:49;22.85;;;18.17;;
58081;SDS011;43876;55.576;38.242;2022-07-06T02:26:16;22.30;;;17.75;;
58081;SDS011;43876;55.576;38.242;2022-07-06T02:28:44;22.40;;;18.42;;
58081;SDS011;43876;55.576;38.242;2022-07-06T02:31:14;21.25;;;18.38;;
58081;SDS011;43876;55.576;38.242;2022-07-06T02:33:44;23.58;;;18.58;;
58081;SDS011;43876;55.576;38.242;2022-07-06T02:36:12;24.25;;;18.70;;
58081;SDS011;43876;55.576;38.242;2022-07-06T02:38:41;21.40;;;17.70;;
58081;SDS011;43876;55.576;38.242;2022-07-06T02:41:08;22.25;;;17.63;;
58081;SDS011;43876;55.576;38.242;2022-07-06T02:43:39;24.38;;;18.58;;
58081;SDS011;43876;55.576;38.242;2022-07-06T02:46:06;23.38;;;18.90;;
58081;SDS011;43876;55.576;38.242;2022-07-06T02:48:34;24.33;;;18.73;;
58081;SDS011;43876;55.576;38.242;2022-07-06T02:51:01;23.35;;;19.50;;
58081;SDS011;43876;55.576;38.242;2022-07-06T02:53:29;24.17;;;19.40;;
58081;SDS011;43876;55.576;38.242;2022-07-06T02:55:56;21.27;;;18.35;;
58081;SDS011;43876;55.576;38.242;2022-07-06T02:58:23;20.85;;;18.17;;
58081;SDS011;43876;55.576;38.242;2022-07-06T03:00:52;21.67;;;18.38;;
58081;SDS011;43876;55.576;38.242;2022-07-06T03:03:19;21.33;;;17.63;;
58081;SDS011;43876;55.576;38.242;2022-07-06T03:05:46;20.70;;;17.92;;
58081;SDS011;43876;55.576;38.242;2022-07-06T03:08:17;20.45;;;18.30;;
58081;SDS011;43876;55.576;38.242;2022-07-06T03:10:45;20.13;;;18.00;;
58081;SDS011;43876;55.576;38.242;2022-07-06T03:13:12;21.77;;;19.38;;
58081;SDS011;43876;55.576;38.242;2022-07-06T03:15:40;23.02;;;20.48;;
58081;SDS011;43876;55.576;38.242;2022-07-06T03:18:08;22.00;;;19.15;;
58081;SDS011;43876;55.576;38.242;2022-07-06T03:20:35;23.55;;;19.50;;
58081;SDS011;43876;55.576;38.242;2022-07-06T03:23:06;25.65;;;20.35;;
58081;SDS011;43876;55.576;38.242;2022-07-06T03:25:34;26.10;;;20.37;;
58081;SDS011;43876;55.576;38.242;2022-07-06T03:28:01;23.65;;;19.25;;
58081;SDS011;43876;55.576;38.242;2022-07-06T03:30:28;21.55;;;19.08;;
58081;SDS011;43876;55.576;38.242;2022-07-06T03:32:56;25.30;;;19.52;;
58081;SDS011;43876;55.576;38.242;2022-07-06T03:35:25;22.08;;;18.58;;
58081;SDS011;43876;55.576;38.242;2022-07-06T03:37:54;22.13;;;19.00;;
58081;SDS011;43876;55.576;38.242;2022-07-06T03:40:23;19.83;;;17.73;;
58081;SDS011;43876;55.576;38.242;2022-07-06T03:42:51;20.92;;;18.25;;
58081;SDS011;43876;55.576;38.242;2022-07-06T03:45:20;21.10;;;18.90;;
58081;SDS011;43876;55.576;38.242;2022-07-06T03:47:47;21.30;;;19.00;;
58081;SDS011;43876;55.576;38.242;2022-07-06T03:50:14;20.80;;;18.70;;
58081;SDS011;43876;55.576;38.242;2022-07-06T03:52:42;20.75;;;18.38;;
58081;SDS011;43876;55.576;38.242;2022-07-06T03:55:10;22.70;;;18.75;;
58081;SDS011;43876;55.576;38.242;2022-07-06T03:57:42;21.15;;;18.25;;
58081;SDS011;43876;55.576;38.242;2022-07-06T04:00:17;21.80;;;19.02;;
58081;SDS011;43876;55.576;38.242;2022-07-06T04:02:52;21.20;;;18.58;;
58081;SDS011;43876;55.576;38.242;2022-07-06T04:05:23;20.85;;;18.67;;
58081;SDS011;43876;55.576;38.242;2022-07-06T04:07:52;20.17;;;18.08;;
58081;SDS011;43876;55.576;38.242;2022-07-06T04:10:24;21.27;;;18.65;;
58081;SDS011;43876;55.576;38.242;2022-07-06T04:12:54;21.08;;;18.83;;
58081;SDS011;43876;55.576;38.242;2022-07-06T04:15:21;22.63;;;19.05;;
58081;SDS011;43876;55.576;38.242;2022-07-06T04:17:48;21.73;;;19.50;;
58081;SDS011;43876;55.576;38.242;2022-07-06T04:20:23;24.40;;;20.88;;
58081;SDS011;43876;55.576;38.242;2022-07-06T04:22:52;22.52;;;19.77;;
58081;SDS011;43876;55.576;38.242;2022-07-06T04:25:22;24.63;;;20.90;;
58081;SDS011;43876;55.576;38.242;2022-07-06T04:27:49;24.08;;;20.45;;
58081;SDS011;43876;55.576;38.242;2022-07-06T04:30:17;26.00;;;20.73;;
58081;SDS011;43876;55.576;38.242;2022-07-06T04:32:44;23.58;;;20.95;;
58081;SDS011;43876;55.576;38.242;2022-07-06T04:35:12;22.50;;;20.07;;
58081;SDS011;43876;55.576;38.242;2022-07-06T04:37:41;25.40;;;21.52;;
58081;SDS011;43876;55.576;38.242;2022-07-06T04:40:09;25.00;;;21.27;;
58081;SDS011;43876;55.576;38.242;2022-07-06T04:42:43;23.52;;;21.00;;
58081;SDS011;43876;55.576;38.242;2022-07-06T04:45:12;27.73;;;22.92;;
58081;SDS011;43876;55.576;38.242;2022-07-06T04:47:39;23.80;;;21.25;;
58081;SDS011;43876;55.576;38.242;2022-07-06T04:50:07;26.83;;;21.02;;
58081;SDS011;43876;55.576;38.242;2022-07-06T04:52:34;23.25;;;20.70;;
58081;SDS011;43876;55.576;38.242;2022-07-06T04:55:02;26.48;;;21.58;;
58081;SDS011;43876;55.576;38.242;2022-07-06T04:57:33;24.73;;;21.02;;
58081;SDS011;43876;55.576;38.242;2022-07-06T05:00:02;25.80;;;21.73;;
58081;SDS011;43876;55.576;38.242;2022-07-06T05:02:31;28.42;;;20.95;;
58081;SDS011;43876;55.576;38.242;2022-07-06T05:04:58;24.35;;;21.45;;
58081;SDS011;43876;55.576;38.242;2022-07-06T05:07:25;22.95;;;20.45;;
58081;SDS011;43876;55.576;38.242;2022-07-06T05:09:56;26.20;;;22.02;;
58081;SDS011;43876;55.576;38.242;2022-07-06T05:12:25;26.33;;;21.23;;
58081;SDS011;43876;55.576;38.242;2022-07-06T05:14:53;24.98;;;21.48;;
58081;SDS011;43876;55.576;38.242;2022-07-06T05:17:21;26.80;;;21.33;;
58081;SDS011;43876;55.576;38.242;2022-07-06T05:19:56;27.67;;;21.52;;
58081;SDS011;43876;55.576;38.242;2022-07-06T05:22:24;26.73;;;22.17;;
58081;SDS011;43876;55.576;38.242;2022-07-06T05:24:52;25.10;;;22.00;;
58081;SDS011;43876;55.576;38.242;2022-07-06T05:27:20;24.10;;;20.77;;
58081;SDS011;43876;55.576;38.242;2022-07-06T05:29:48;24.80;;;22.15;;
58081;SDS011;43876;55.576;38.242;2022-07-06T05:32:15;29.60;;;21.77;;
58081;SDS011;43876;55.576;38.242;2022-07-06T05:34:43;28.05;;;21.50;;
58081;SDS011;43876;55.576;38.242;2022-07-06T05:37:13;26.00;;;21.48;;
58081;SDS011;43876;55.576;38.242;2022-07-06T05:39:41;29.35;;;21.92;;
58081;SDS011;43876;55.576;38.242;2022-07-06T05:42:12;26.90;;;21.60;;
58081;SDS011;43876;55.576;38.242;2022-07-06T05:44:44;28.48;;;22.45;;
58081;SDS011;43876;55.576;38.242;2022-07-06T05:47:12;26.60;;;20.70;;
58081;SDS011;43876;55.576;38.242;2022-07-06T05:49:58;24.65;;;19.90;;
58081;SDS011;43876;55.576;38.242;2022-07-06T05:52:59;24.92;;;19.35;;
58081;SDS011;43876;55.576;38.242;2022-07-06T05:55:41;22.83;;;20.10;;
58081;SDS011;43876;55.576;38.242;2022-07-06T05:58:08;26.23;;;20.23;;
58081;SDS011;43876;55.576;38.242;2022-07-06T06:00:36;24.10;;;20.33;;
58081;SDS011;43876;55.576;38.242;2022-07-06T06:03:10;25.40;;;20.50;;
58081;SDS011;43876;55.576;38.242;2022-07-06T06:05:39;23.90;;;21.00;;
58081;SDS011;43876;55.576;38.242;2022-07-06T06:08:08;25.00;;;20.27;;
58081;SDS011;43876;55.576;38.242;2022-07-06T06:10:35;29.73;;;21.35;;
58081;SDS011;43876;55.576;38.242;2022-07-06T06:13:06;29.13;;;24.35;;
58081;SDS011;43876;55.576;38.242;2022-07-06T06:15:35;30.25;;;26.92;;
58081;SDS011;43876;55.576;38.242;2022-07-06T06:18:03;32.70;;;26.40;;
58081;SDS011;43876;55.576;38.242;2022-07-06T06:20:31;33.38;;;27.65;;
58081;SDS011;43876;55.576;38.242;2022-07-06T06:22:58;36.92;;;28.88;;
58081;SDS011;43876;55.576;38.242;2022-07-06T06:28:04;31.20;;;27.85;;
58081;SDS011;43876;55.576;38.242;2022-07-06T06:30:36;32.45;;;27.38;;
58081;SDS011;43876;55.576;38.242;2022-07-06T06:33:07;33.35;;;27.55;;
58081;SDS011;43876;55.576;38.242;2022-07-06T06:35:36;34.15;;;27.13;;
58081;SDS011;43876;55.576;38.242;2022-07-06T06:38:03;30.90;;;26.90;;
58081;SDS011;43876;55.576;38.242;2022-07-06T06:40:30;32.92;;;27.10;;
58081;SDS011;43876;55.576;38.242;2022-07-06T06:42:58;33.80;;;25.55;;
58081;SDS011;43876;55.576;38.242;2022-07-06T06:45:25;32.15;;;27.38;;
58081;SDS011;43876;55.576;38.242;2022-07-06T06:47:52;29.80;;;26.50;;
58081;SDS011;43876;55.576;38.242;2022-07-06T06:50:19;29.05;;;24.88;;
58081;SDS011;43876;55.576;38.242;2022-07-06T06:52:47;29.63;;;25.75;;
58081;SDS011;43876;55.576;38.242;2022-07-06T06:55:14;31.30;;;26.40;;
58081;SDS011;43876;55.576;38.242;2022-07-06T06:57:41;29.58;;;25.75;;
58081;SDS011;43876;55.576;38.242;2022-07-06T07:00:09;28.73;;;25.35;;
58081;SDS011;43876;55.576;38.242;2022-07-06T07:02:36;27.83;;;23.88;;
58081;SDS011;43876;55.576;38.242;2022-07-06T07:05:04;27.92;;;22.42;;
58081;SDS011;43876;55.576;38.242;2022-07-06T07:07:36;24.02;;;21.02;;
58081;SDS011;43876;55.576;38.242;2022-07-06T07:10:04;24.63;;;18.83;;
58081;SDS011;43876;55.576;38.242;2022-07-06T07:12:31;22.40;;;19.48;;
58081;SDS011;43876;55.576;38.242;2022-07-06T07:15:00;22.30;;;15.88;;
58081;SDS011;43876;55.576;38.242;2022-07-06T07:17:28;19.80;;;15.40;;
58081;SDS011;43876;55.576;38.242;2022-07-06T07:19:55;19.80;;;16.05;;
58081;SDS011;43876;55.576;38.242;2022-07-06T07:22:24;18.33;;;15.15;;
58081;SDS011;43876;55.576;38.242;2022-07-06T07:24:51;19.48;;;15.77;;
58081;SDS011;43876;55.576;38.242;2022-07-06T07:27:18;17.67;;;14.52;;
58081;SDS011;43876;55.576;38.242;2022-07-06T07:29:45;15.43;;;13.00;;
58081;SDS011;43876;55.576;38.242;2022-07-06T07:32:12;15.43;;;13.77;;
58081;SDS011;43876;55.576;38.242;2022-07-06T07:34:39;13.52;;;11.82;;
58081;SDS011;43876;55.576;38.242;2022-07-06T07:37:06;12.82;;;10.93;;
58081;SDS011;43876;55.576;38.242;2022-07-06T07:39:33;14.55;;;11.82;;
58081;SDS011;43876;55.576;38.242;2022-07-06T07:42:00;16.13;;;12.80;;
58081;SDS011;43876;55.576;38.242;2022-07-06T07:44:28;21.17;;;13.57;;
58081;SDS011;43876;55.576;38.242;2022-07-06T07:46:55;20.00;;;13.98;;
58081;SDS011;43876;55.576;38.242;2022-07-06T07:49:22;21.10;;;15.18;;
58081;SDS011;43876;55.576;38.242;2022-07-06T07:51:49;15.27;;;12.30;;
58081;SDS011;43876;55.576;38.242;2022-07-06T07:54:16;14.30;;;11.63;;
58081;SDS011;43876;55.576;38.242;2022-07-06T07:56:43;16.58;;;11.80;;
58081;SDS011;43876;55.576;38.242;2022-07-06T07:59:11;16.92;;;11.63;;
58081;SDS011;43876;55.576;38.242;2022-07-06T08:01:39;15.73;;;11.70;;
58081;SDS011;43876;55.576;38.242;2022-07-06T08:04:07;17.75;;;12.30;;
58081;SDS011;43876;55.576;38.242;2022-07-06T08:06:34;17.63;;;12.40;;
58081;SDS011;43876;55.576;38.242;2022-07-06T08:09:01;22.27;;;12.48;;
58081;SDS011;43876;55.576;38.242;2022-07-06T08:11:30;18.98;;;12.65;;
58081;SDS011;43876;55.576;38.242;2022-07-06T08:13:57;40.33;;;14.98;;
58081;SDS011;43876;55.576;38.242;2022-07-06T08:16:24;36.20;;;14.85;;
58081;SDS011;43876;55.576;38.242;2022-07-06T08:18:51;70.15;;;19.58;;
58081;SDS011;43876;55.576;38.242;2022-07-06T08:21:19;31.83;;;15.18;;
58081;SDS011;43876;55.576;38.242;2022-07-06T08:23:51;15.93;;;13.50;;
58081;SDS011;43876;55.576;38.242;2022-07-06T08:26:19;15.55;;;13.15;;
58081;SDS011;43876;55.576;38.242;2022-07-06T08:28:46;16.27;;;12.65;;
58081;SDS011;43876;55.576;38.242;2022-07-06T08:31:13;17.17;;;13.38;;
58081;SDS011;43876;55.576;38.242;2022-07-06T08:34:01;17.33;;;12.48;;
58081;SDS011;43876;55.576;38.242;2022-07-06T08:36:28;31.65;;;14.70;;
58081;SDS011;43876;55.576;38.242;2022-07-06T08:38:55;19.85;;;13.68;;
58081;SDS011;43876;55.576;38.242;2022-07-06T08:41:23;18.17;;;13.57;;
58081;SDS011;43876;55.576;38.242;2022-07-06T08:43:53;18.08;;;13.90;;
58081;SDS011;43876;55.576;38.242;2022-07-06T08:46:20;15.65;;;13.95;;
58081;SDS011;43876;55.576;38.242;2022-07-06T08:48:49;15.13;;;13.70;;
58081;SDS011;43876;55.576;38.242;2022-07-06T08:51:18;17.48;;;13.27;;
58081;SDS011;43876;55.576;38.242;2022-07-06T08:53:55;17.55;;;13.98;;
58081;SDS011;43876;55.576;38.242;2022-07-06T08:56:23;25.93;;;15.03;;
58081;SDS011;43876;55.576;38.242;2022-07-06T08:58:52;41.50;;;15.02;;
58081;SDS011;43876;55.576;38.242;2022-07-06T09:01:22;15.60;;;12.55;;
58081;SDS011;43876;55.576;38.242;2022-07-06T09:03:50;24.13;;;14.00;;
58081;SDS011;43876;55.576;38.242;2022-07-06T09:06:19;16.60;;;13.23;;
58081;SDS011;43876;55.576;38.242;2022-07-06T09:08:55;17.17;;;13.25;;
58081;SDS011;43876;55.576;38.242;2022-07-06T09:11:24;29.30;;;16.08;;
58081;SDS011;43876;55.576;38.242;2022-07-06T09:13:54;28.73;;;14.40;;
58081;SDS011;43876;55.576;38.242;2022-07-06T09:16:27;19.73;;;13.90;;
58081;SDS011;43876;55.576;38.242;2022-07-06T09:19:06;32.53;;;15.93;;
58081;SDS011;43876;55.576;38.242;2022-07-06T09:21:34;23.80;;;15.13;;
58081;SDS011;43876;55.576;38.242;2022-07-06T09:24:11;23.35;;;14.45;;
58081;SDS011;43876;55.576;38.242;2022-07-06T09:26:39;23.73;;;16.13;;
58081;SDS011;43876;55.576;38.242;2022-07-06T09:29:08;23.35;;;14.95;;
58081;SDS011;43876;55.576;38.242;2022-07-06T09:31:35;22.05;;;15.13;;
58081;SDS011;43876;55.576;38.242;2022-07-06T09:34:03;33.50;;;15.70;;
58081;SDS011;43876;55.576;38.242;2022-07-06T09:36:46;16.75;;;13.18;;
58081;SDS011;43876;55.576;38.242;2022-07-06T09:39:17;34.15;;;14.15;;
58081;SDS011;43876;55.576;38.242;2022-07-06T09:41:49;26.42;;;14.13;;
58081;SDS011;43876;55.576;38.242;2022-07-06T09:44:25;20.58;;;13.45;;
58081;SDS011;43876;55.576;38.242;2022-07-06T09:46:53;15.98;;;13.02;;
58081;SDS011;43876;55.576;38.242;2022-07-06T09:49:23;28.20;;;13.77;;
58081;SDS011;43876;55.576;38.242;2022-07-06T09:51:51;17.52;;;12.38;;
58081;SDS011;43876;55.576;38.242;2022-07-06T09:54:21;19.02;;;13.02;;
58081;SDS011;43876;55.576;38.242;2022-07-06T09:56:49;18.80;;;12.97;;
58081;SDS011;43876;55.576;38.242;2022-07-06T09:59:21;18.52;;;13.20;;
58081;SDS011;43876;55.576;38.242;2022-07-06T10:01:53;17.33;;;11.85;;
58081;SDS011;43876;55.576;38.242;2022-07-06T10:04:23;14.18;;;12.18;;
58081;SDS011;43876;55.576;38.242;2022-07-06T10:06:51;16.73;;;12.52;;
58081;SDS011;43876;55.576;38.242;2022-07-06T10:09:20;14.27;;;12.48;;
58081;SDS011;43876;55.576;38.242;2022-07-06T10:11:51;16.17;;;13.10;;
58081;SDS011;43876;55.576;38.242;2022-07-06T10:14:21;19.42;;;12.27;;
58081;SDS011;43876;55.576;38.242;2022-07-06T10:16:50;43.80;;;13.68;;
58081;SDS011;43876;55.576;38.242;2022-07-06T10:19:19;15.82;;;12.60;;
58081;SDS011;43876;55.576;38.242;2022-07-06T10:21:48;14.32;;;12.82;;
58081;SDS011;43876;55.576;38.242;2022-07-06T10:24:15;15.90;;;12.65;;
58081;SDS011;43876;55.576;38.242;2022-07-06T10:26:44;15.97;;;13.10;;
58081;SDS011;43876;55.576;38.242;2022-07-06T10:29:17;14.77;;;13.07;;
58081;SDS011;43876;55.576;38.242;2022-07-06T10:31:46;13.80;;;12.05;;
58081;SDS011;43876;55.576;38.242;2022-07-06T10:34:18;14.43;;;12.90;;
58081;SDS011;43876;55.576;38.242;2022-07-06T10:36:48;14.88;;;12.68;;
58081;SDS011;43876;55.576;38.242;2022-07-06T10:39:34;17.52;;;13.10;;
58081;SDS011;43876;55.576;38.242;2022-07-06T10:50:38;16.55;;;13.07;;
58081;SDS011;43876;55.576;38.242;2022-07-06T10:55:45;19.27;;;13.10;;
58081;SDS011;43876;55.576;38.242;2022-07-06T10:58:14;16.05;;;12.77;;
58081;SDS011;43876;55.576;38.242;2022-07-06T11:00:42;18.25;;;15.05;;
58081;SDS011;43876;55.576;38.242;2022-07-06T11:03:38;15.63;;;13.80;;
58081;SDS011;43876;55.576;38.242;2022-07-06T11:08:49;15.63;;;13.30;;
58081;SDS011;43876;55.576;38.242;2022-07-06T11:11:18;20.33;;;14.40;;
58081;SDS011;43876;55.576;38.242;2022-07-06T11:16:38;15.30;;;13.70;;
58081;SDS011;43876;55.576;38.242;2022-07-06T11:19:09;14.60;;;13.02;;
58081;SDS011;43876;55.576;38.242;2022-07-06T11:21:39;16.83;;;13.43;;
58081;SDS011;43876;55.576;38.242;2022-07-06T11:24:09;14.52;;;13.02;;
58081;SDS011;43876;55.576;38.242;2022-07-06T11:26:38;15.30;;;13.70;;
58081;SDS011;43876;55.576;38.242;2022-07-06T11:29:07;16.63;;;14.75;;
58081;SDS011;43876;55.576;38.242;2022-07-06T11:34:04;17.33;;;14.43;;
58081;SDS011;43876;55.576;38.242;2022-07-06T11:36:33;21.00;;;15.05;;
58081;SDS011;43876;55.576;38.242;2022-07-06T11:39:08;18.55;;;13.93;;
58081;SDS011;43876;55.576;38.242;2022-07-06T11:41:36;19.55;;;14.90;;
58081;SDS011;43876;55.576;38.242;2022-07-06T11:44:05;19.33;;;14.40;;
58081;SDS011;43876;55.576;38.242;2022-07-06T11:46:33;20.90;;;15.75;;
58081;SDS011;43876;55.576;38.242;2022-07-06T11:49:07;16.42;;;11.68;;
58081;SDS011;43876;55.576;38.242;2022-07-06T11:51:52;19.00;;;12.35;;
58081;SDS011;43876;55.576;38.242;2022-07-06T11:54:21;16.90;;;13.43;;
58081;SDS011;43876;55.576;38.242;2022-07-06T11:56:50;25.35;;;15.23;;
58081;SDS011;43876;55.576;38.242;2022-07-06T11:59:22;17.00;;;14.80;;
58081;SDS011;43876;55.576;38.242;2022-07-06T14:54:07;22.88;;;9.90;;
58081;SDS011;43876;55.576;38.242;2022-07-06T14:56:36;12.03;;;8.73;;
58081;SDS011;43876;55.576;38.242;2022-07-06T14:59:02;12.85;;;8.18;;
58081;SDS011;43876;55.576;38.242;2022-07-06T15:01:50;20.63;;;9.55;;
58081;SDS011;43876;55.576;38.242;2022-07-06T15:04:17;25.88;;;9.45;;
58081;SDS011;43876;55.576;38.242;2022-07-06T15:06:44;23.05;;;9.77;;
58081;SDS011;43876;55.576;38.242;2022-07-06T15:09:22;20.33;;;8.65;;
58081;SDS011;43876;55.576;38.242;2022-07-06T15:11:50;20.60;;;9.20;;
58081;SDS011;43876;55.576;38.242;2022-07-06T15:14:17;18.40;;;9.68;;
58081;SDS011;43876;55.576;38.242;2022-07-06T15:16:44;32.03;;;10.40;;
58081;SDS011;43876;55.576;38.242;2022-07-06T15:19:12;20.98;;;9.77;;
58081;SDS011;43876;55.576;38.242;2022-07-06T15:21:39;37.95;;;10.73;;
58081;SDS011;43876;55.576;38.242;2022-07-06T15:24:07;22.65;;;9.88;;
58081;SDS011;43876;55.576;38.242;2022-07-06T15:26:34;41.92;;;11.60;;
58081;SDS011;43876;55.576;38.242;2022-07-06T15:29:01;24.00;;;10.32;;
58081;SDS011;43876;55.576;38.242;2022-07-06T15:31:28;21.27;;;9.73;;
58081;SDS011;43876;55.576;38.242;2022-07-06T15:33:56;18.70;;;9.60;;
58081;SDS011;43876;55.576;38.242;2022-07-06T15:36:22;38.47;;;10.70;;
58081;SDS011;43876;55.576;38.242;2022-07-06T15:38:50;17.98;;;9.65;;
58081;SDS011;43876;55.576;38.242;2022-07-06T15:41:17;20.23;;;9.45;;
58081;SDS011;43876;55.576;38.242;2022-07-06T15:43:45;12.35;;;9.63;;
58081;SDS011;43876;55.576;38.242;2022-07-06T15:46:20;17.15;;;9.65;;
58081;SDS011;43876;55.576;38.242;2022-07-06T15:48:47;15.25;;;9.85;;
58081;SDS011;43876;55.576;38.242;2022-07-06T15:51:14;22.65;;;10.57;;
58081;SDS011;43876;55.576;38.242;2022-07-06T15:53:42;13.35;;;9.73;;
58081;SDS011;43876;55.576;38.242;2022-07-06T15:56:11;38.35;;;11.93;;
58081;SDS011;43876;55.576;38.242;2022-07-06T15:58:39;24.90;;;10.57;;
58081;SDS011;43876;55.576;38.242;2022-07-06T16:01:09;18.90;;;10.55;;
58081;SDS011;43876;55.576;38.242;2022-07-06T16:03:37;18.23;;;10.32;;
58081;SDS011;43876;55.576;38.242;2022-07-06T16:06:05;20.85;;;10.75;;
58081;SDS011;43876;55.576;38.242;2022-07-06T16:08:36;16.83;;;10.40;;
58081;SDS011;43876;55.576;38.242;2022-07-06T16:11:12;26.98;;;10.82;;
58081;SDS011;43876;55.576;38.242;2022-07-06T16:13:40;14.90;;;10.30;;
58081;SDS011;43876;55.576;38.242;2022-07-06T16:16:08;12.57;;;10.18;;
58081;SDS011;43876;55.576;38.242;2022-07-06T16:18:37;11.75;;;10.55;;
58081;SDS011;43876;55.576;38.242;2022-07-06T16:21:04;21.10;;;11.07;;
58081;SDS011;43876;55.576;38.242;2022-07-06T16:23:32;17.67;;;10.20;;
58081;SDS011;43876;55.576;38.242;2022-07-06T16:25:59;28.30;;;11.95;;
58081;SDS011;43876;55.576;38.242;2022-07-06T16:28:26;83.78;;;17.55;;
58081;SDS011;43876;55.576;38.242;2022-07-06T16:30:53;14.32;;;10.13;;
58081;SDS011;43876;55.576;38.242;2022-07-06T16:33:20;14.98;;;10.32;;
58081;SDS011;43876;55.576;38.242;2022-07-06T16:35:47;15.23;;;10.45;;
58081;SDS011;43876;55.576;38.242;2022-07-06T16:38:23;15.75;;;10.85;;
58081;SDS011;43876;55.576;38.242;2022-07-06T16:40:53;11.95;;;10.13;;
58081;SDS011;43876;55.576;38.242;2022-07-06T16:43:20;12.85;;;10.07;;
58081;SDS011;43876;55.576;38.242;2022-07-06T16:45:47;16.10;;;11.25;;
58081;SDS011;43876;55.576;38.242;2022-07-06T16:48:14;15.80;;;11.40;;
58081;SDS011;43876;55.576;38.242;2022-07-06T16:50:41;12.77;;;11.32;;
58081;SDS011;43876;55.576;38.242;2022-07-06T16:53:09;14.10;;;11.57;;
58081;SDS011;43876;55.576;38.242;2022-07-06T16:55:44;14.93;;;12.07;;
58081;SDS011;43876;55.576;38.242;2022-07-06T16:58:11;16.95;;;11.60;;
58081;SDS011;43876;55.576;38.242;2022-07-06T17:00:38;17.30;;;12.57;;
58081;SDS011;43876;55.576;38.242;2022-07-06T17:03:06;17.02;;;12.60;;
58081;SDS011;43876;55.576;38.242;2022-07-06T17:05:33;16.45;;;12.48;;
58081;SDS011;43876;55.576;38.242;2022-07-06T17:08:00;15.45;;;12.68;;
58081;SDS011;43876;55.576;38.242;2022-07-06T17:10:27;19.10;;;13.63;;
58081;SDS011;43876;55.576;38.242;2022-07-06T17:12:54;20.98;;;14.35;;
58081;SDS011;43876;55.576;38.242;2022-07-06T17:15:21;17.15;;;13.70;;
58081;SDS011;43876;55.576;38.242;2022-07-06T17:17:48;18.02;;;13.43;;
58081;SDS011;43876;55.576;38.242;2022-07-06T17:20:16;19.80;;;13.90;;
58081;SDS011;43876;55.576;38.242;2022-07-06T17:22:44;18.30;;;13.93;;
58081;SDS011;43876;55.576;38.242;2022-07-06T17:25:11;17.83;;;14.43;;
58081;SDS011;43876;55.576;38.242;2022-07-06T17:27:38;16.20;;;13.70;;
58081;SDS011;43876;55.576;38.242;2022-07-06T17:30:05;17.15;;;13.80;;
58081;SDS011;43876;55.576;38.242;2022-07-06T17:32:33;19.95;;;15.02;;